sensor_id;sensor_type;location;lat;lon;timestamp;temperature;humidity
680;DHT22;322;48.846;9.230;2023-05-10T00:02:17;13.90;99.90
680;DHT22;322;48.846;9.230;2023-05-10T00:04:45;13.80;99.90
680;DHT22;322;48.846;9.230;2023-05-10T00:07:13;13.80;99.90
680;DHT22;322;48.846;9.230;2023-05-10T00:09:41;13.70;99.90
680;DHT22;322;48.846;9.230;2023-05-10T00:12:09;13.50;99.90
680;DHT22;322;48.846;9.230;2023-05-10T00:14:38;13.40;99.90
680;DHT22;322;48.846;9.230;2023-05-10T00:17:06;13.30;99.90
680;DHT22;322;48.846;9.230;2023-05-10T00:19:33;13.30;99.90
680;DHT22;322;48.846;9.230;2023-05-10T00:22:01;13.20;99.90
680;DHT22;322;48.846;9.230;2023-05-10T00:24:29;13.10;99.90
680;DHT22;322;48.846;9.230;2023-05-10T00:26:57;13.10;99.90
680;DHT22;322;48.846;9.230;2023-05-10T00:29:25;13.10;99.90
680;DHT22;322;48.846;9.230;2023-05-10T00:31:55;13.00;99.90
680;DHT22;322;48.846;9.230;2023-05-10T00:34:24;12.90;99.90
680;DHT22;322;48.846;9.230;2023-05-10T00:36:52;12.90;99.90
680;DHT22;322;48.846;9.230;2023-05-10T00:39:20;12.80;99.90
680;DHT22;322;48.846;9.230;2023-05-10T00:41:48;12.80;99.90
680;DHT22;322;48.846;9.230;2023-05-10T00:44:16;12.80;99.90
680;DHT22;322;48.846;9.230;2023-05-10T00:46:45;12.80;99.90
680;DHT22;322;48.846;9.230;2023-05-10T00:49:14;12.80;99.90
680;DHT22;322;48.846;9.230;2023-05-10T00:51:42;12.80;99.90
680;DHT22;322;48.846;9.230;2023-05-10T00:54:12;12.80;99.90
680;DHT22;322;48.846;9.230;2023-05-10T00:56:41;12.70;99.90
680;DHT22;322;48.846;9.230;2023-05-10T00:59:10;12.70;99.90
680;DHT22;322;48.846;9.230;2023-05-10T01:01:38;12.70;99.90
680;DHT22;322;48.846;9.230;2023-05-10T01:04:06;12.70;99.90
680;DHT22;322;48.846;9.230;2023-05-10T01:06:36;12.70;99.90
680;DHT22;322;48.846;9.230;2023-05-10T01:12:51;12.60;99.90
680;DHT22;322;48.846;9.230;2023-05-10T01:15:20;12.60;99.90
680;DHT22;322;48.846;9.230;2023-05-10T01:17:49;12.60;99.90
680;DHT22;322;48.846;9.230;2023-05-10T01:20:17;12.60;99.90
680;DHT22;322;48.846;9.230;2023-05-10T01:29:24;12.50;99.90
680;DHT22;322;48.846;9.230;2023-05-10T01:32:17;12.50;99.90
680;DHT22;322;48.846;9.230;2023-05-10T01:34:56;12.50;99.90
680;DHT22;322;48.846;9.230;2023-05-10T01:37:29;12.60;99.90
680;DHT22;322;48.846;9.230;2023-05-10T01:40:02;12.60;99.90
680;DHT22;322;48.846;9.230;2023-05-10T01:42:38;12.60;99.90
680;DHT22;322;48.846;9.230;2023-05-10T01:45:11;12.60;99.90
680;DHT22;322;48.846;9.230;2023-05-10T01:47:45;12.60;99.90
680;DHT22;322;48.846;9.230;2023-05-10T01:50:18;12.60;99.90
680;DHT22;322;48.846;9.230;2023-05-10T01:52:51;12.60;99.90
680;DHT22;322;48.846;9.230;2023-05-10T01:55:21;12.50;99.90
680;DHT22;322;48.846;9.230;2023-05-10T01:57:56;12.60;99.90
680;DHT22;322;48.846;9.230;2023-05-10T02:00:27;12.50;99.90
680;DHT22;322;48.846;9.230;2023-05-10T02:02:57;12.50;99.90
680;DHT22;322;48.846;9.230;2023-05-10T02:05:29;12.50;99.90
680;DHT22;322;48.846;9.230;2023-05-10T02:07:58;12.50;99.90
680;DHT22;322;48.846;9.230;2023-05-10T02:10:28;12.40;99.90
680;DHT22;322;48.846;9.230;2023-05-10T02:12:58;12.40;99.90
680;DHT22;322;48.846;9.230;2023-05-10T02:15:27;12.40;99.90
680;DHT22;322;48.846;9.230;2023-05-10T02:17:58;12.40;99.90
680;DHT22;322;48.846;9.230;2023-05-10T02:20:27;12.40;99.90
680;DHT22;322;48.846;9.230;2023-05-10T02:22:57;12.40;99.90
680;DHT22;322;48.846;9.230;2023-05-10T02:25:25;12.40;99.90
680;DHT22;322;48.846;9.230;2023-05-10T02:27:55;12.30;99.90
680;DHT22;322;48.846;9.230;2023-05-10T02:30:24;12.40;99.90
680;DHT22;322;48.846;9.230;2023-05-10T02:32:53;12.40;99.90
680;DHT22;322;48.846;9.230;2023-05-10T02:35:24;12.40;99.90
680;DHT22;322;48.846;9.230;2023-05-10T02:37:54;12.30;99.90
680;DHT22;322;48.846;9.230;2023-05-10T02:40:23;12.40;99.90
680;DHT22;322;48.846;9.230;2023-05-10T02:42:56;12.40;99.90
680;DHT22;322;48.846;9.230;2023-05-10T02:45:29;12.40;99.90
680;DHT22;322;48.846;9.230;2023-05-10T02:47:58;12.40;99.90
680;DHT22;322;48.846;9.230;2023-05-10T02:50:30;12.50;99.90
680;DHT22;322;48.846;9.230;2023-05-10T02:53:01;12.50;99.90
680;DHT22;322;48.846;9.230;2023-05-10T02:55:36;12.60;99.90
680;DHT22;322;48.846;9.230;2023-05-10T02:58:04;12.50;99.90
680;DHT22;322;48.846;9.230;2023-05-10T03:00:32;12.60;99.90
680;DHT22;322;48.846;9.230;2023-05-10T03:03:00;12.50;99.90
680;DHT22;322;48.846;9.230;2023-05-10T03:05:30;12.50;99.90
680;DHT22;322;48.846;9.230;2023-05-10T03:07:58;12.50;99.90
680;DHT22;322;48.846;9.230;2023-05-10T03:10:29;12.60;99.90
680;DHT22;322;48.846;9.230;2023-05-10T03:13:07;12.60;99.90
680;DHT22;322;48.846;9.230;2023-05-10T03:15:44;12.60;99.90
680;DHT22;322;48.846;9.230;2023-05-10T03:18:18;12.60;99.90
680;DHT22;322;48.846;9.230;2023-05-10T03:20:51;12.60;99.90
680;DHT22;322;48.846;9.230;2023-05-10T03:23:27;12.60;99.90
680;DHT22;322;48.846;9.230;2023-05-10T03:25:58;12.50;99.90
680;DHT22;322;48.846;9.230;2023-05-10T03:28:28;12.60;99.90
680;DHT22;322;48.846;9.230;2023-05-10T03:30:58;12.60;99.90
680;DHT22;322;48.846;9.230;2023-05-10T03:33:26;12.60;99.90
680;DHT22;322;48.846;9.230;2023-05-10T03:35:56;12.60;99.90
680;DHT22;322;48.846;9.230;2023-05-10T03:38:24;12.60;99.90
680;DHT22;322;48.846;9.230;2023-05-10T03:40:55;12.60;99.90
680;DHT22;322;48.846;9.230;2023-05-10T03:43:23;12.60;99.90
680;DHT22;322;48.846;9.230;2023-05-10T03:45:51;12.60;99.90
680;DHT22;322;48.846;9.230;2023-05-10T03:48:19;12.60;99.90
680;DHT22;322;48.846;9.230;2023-05-10T03:50:47;12.70;99.90
680;DHT22;322;48.846;9.230;2023-05-10T03:53:17;12.70;99.90
680;DHT22;322;48.846;9.230;2023-05-10T03:55:45;12.70;99.90
680;DHT22;322;48.846;9.230;2023-05-10T03:58:13;12.70;99.90
680;DHT22;322;48.846;9.230;2023-05-10T04:00:41;12.70;99.90
680;DHT22;322;48.846;9.230;2023-05-10T04:03:11;12.70;99.90
680;DHT22;322;48.846;9.230;2023-05-10T04:05:40;12.70;99.90
680;DHT22;322;48.846;9.230;2023-05-10T04:08:08;12.70;99.90
680;DHT22;322;48.846;9.230;2023-05-10T04:10:37;12.70;99.90
680;DHT22;322;48.846;9.230;2023-05-10T04:13:06;12.70;99.90
680;DHT22;322;48.846;9.230;2023-05-10T04:15:34;12.70;99.90
680;DHT22;322;48.846;9.230;2023-05-10T04:18:02;12.80;99.90
680;DHT22;322;48.846;9.230;2023-05-10T04:20:34;12.70;99.90
680;DHT22;322;48.846;9.230;2023-05-10T04:23:02;12.80;99.90
680;DHT22;322;48.846;9.230;2023-05-10T04:25:30;12.80;99.90
680;DHT22;322;48.846;9.230;2023-05-10T04:27:59;12.70;99.90
680;DHT22;322;48.846;9.230;2023-05-10T04:30:27;12.80;99.90
680;DHT22;322;48.846;9.230;2023-05-10T04:32:55;12.80;99.90
680;DHT22;322;48.846;9.230;2023-05-10T04:35:23;12.70;99.90
680;DHT22;322;48.846;9.230;2023-05-10T04:37:51;12.80;99.90
680;DHT22;322;48.846;9.230;2023-05-10T04:40:19;12.70;99.90
680;DHT22;322;48.846;9.230;2023-05-10T04:42:47;12.70;99.90
680;DHT22;322;48.846;9.230;2023-05-10T04:45:17;12.70;99.90
680;DHT22;322;48.846;9.230;2023-05-10T04:47:45;12.80;99.90
680;DHT22;322;48.846;9.230;2023-05-10T04:50:13;12.80;99.90
680;DHT22;322;48.846;9.230;2023-05-10T04:52:41;12.90;99.90
680;DHT22;322;48.846;9.230;2023-05-10T04:55:09;13.00;99.90
680;DHT22;322;48.846;9.230;2023-05-10T04:57:37;13.00;99.90
680;DHT22;322;48.846;9.230;2023-05-10T05:00:06;13.00;99.90
680;DHT22;322;48.846;9.230;2023-05-10T05:02:36;13.10;99.90
680;DHT22;322;48.846;9.230;2023-05-10T05:05:05;13.10;99.90
680;DHT22;322;48.846;9.230;2023-05-10T05:07:33;13.10;99.90
680;DHT22;322;48.846;9.230;2023-05-10T05:10:01;13.10;99.90
680;DHT22;322;48.846;9.230;2023-05-10T05:12:29;13.20;99.90
680;DHT22;322;48.846;9.230;2023-05-10T05:14:57;13.20;99.90
680;DHT22;322;48.846;9.230;2023-05-10T05:17:25;13.30;99.90
680;DHT22;322;48.846;9.230;2023-05-10T05:19:55;13.30;99.90
680;DHT22;322;48.846;9.230;2023-05-10T05:22:23;13.50;99.90
680;DHT22;322;48.846;9.230;2023-05-10T05:24:54;13.60;99.90
680;DHT22;322;48.846;9.230;2023-05-10T05:27:22;13.70;99.90
680;DHT22;322;48.846;9.230;2023-05-10T05:29:53;13.90;99.90
680;DHT22;322;48.846;9.230;2023-05-10T05:32:21;14.00;99.90
680;DHT22;322;48.846;9.230;2023-05-10T05:34:49;14.10;99.90
680;DHT22;322;48.846;9.230;2023-05-10T05:37:20;14.20;99.90
680;DHT22;322;48.846;9.230;2023-05-10T05:39:49;14.30;99.90
680;DHT22;322;48.846;9.230;2023-05-10T05:42:17;14.50;99.90
680;DHT22;322;48.846;9.230;2023-05-10T05:44:45;14.60;99.90
680;DHT22;322;48.846;9.230;2023-05-10T05:47:13;14.60;99.90
680;DHT22;322;48.846;9.230;2023-05-10T05:49:41;14.70;99.90
680;DHT22;322;48.846;9.230;2023-05-10T05:52:09;14.80;99.90
680;DHT22;322;48.846;9.230;2023-05-10T05:54:38;14.80;99.90
680;DHT22;322;48.846;9.230;2023-05-10T05:57:06;14.90;99.90
680;DHT22;322;48.846;9.230;2023-05-10T05:59:34;15.10;99.90
680;DHT22;322;48.846;9.230;2023-05-10T06:02:02;15.20;99.90
680;DHT22;322;48.846;9.230;2023-05-10T06:04:30;15.10;99.90
680;DHT22;322;48.846;9.230;2023-05-10T06:06:58;15.20;99.90
680;DHT22;322;48.846;9.230;2023-05-10T06:09:26;15.10;99.90
680;DHT22;322;48.846;9.230;2023-05-10T06:11:55;15.00;99.90
680;DHT22;322;48.846;9.230;2023-05-10T06:14:23;14.90;99.90
680;DHT22;322;48.846;9.230;2023-05-10T06:16:51;15.00;99.90
680;DHT22;322;48.846;9.230;2023-05-10T06:19:19;15.10;99.90
680;DHT22;322;48.846;9.230;2023-05-10T06:21:47;15.00;99.90
680;DHT22;322;48.846;9.230;2023-05-10T06:24:18;15.10;99.90
680;DHT22;322;48.846;9.230;2023-05-10T06:26:45;15.10;99.90
680;DHT22;322;48.846;9.230;2023-05-10T06:29:15;15.00;99.90
680;DHT22;322;48.846;9.230;2023-05-10T06:31:42;15.00;99.90
680;DHT22;322;48.846;9.230;2023-05-10T06:34:10;14.70;99.90
680;DHT22;322;48.846;9.230;2023-05-10T06:36:38;14.60;99.90
680;DHT22;322;48.846;9.230;2023-05-10T06:39:06;14.60;99.90
680;DHT22;322;48.846;9.230;2023-05-10T06:41:34;14.70;99.90
680;DHT22;322;48.846;9.230;2023-05-10T06:44:03;14.90;99.90
680;DHT22;322;48.846;9.230;2023-05-10T06:46:33;15.00;99.90
680;DHT22;322;48.846;9.230;2023-05-10T06:49:01;15.20;99.90
680;DHT22;322;48.846;9.230;2023-05-10T06:51:28;15.30;99.90
680;DHT22;322;48.846;9.230;2023-05-10T06:53:57;15.50;99.90
680;DHT22;322;48.846;9.230;2023-05-10T06:56:25;15.60;99.90
680;DHT22;322;48.846;9.230;2023-05-10T06:58:53;15.90;99.90
680;DHT22;322;48.846;9.230;2023-05-10T07:01:21;16.00;99.90
680;DHT22;322;48.846;9.230;2023-05-10T07:03:50;16.10;99.80
680;DHT22;322;48.846;9.230;2023-05-10T07:06:18;16.10;98.10
680;DHT22;322;48.846;9.230;2023-05-10T07:08:59;16.20;99.90
680;DHT22;322;48.846;9.230;2023-05-10T07:11:27;16.30;99.90
680;DHT22;322;48.846;9.230;2023-05-10T07:13:55;16.20;99.40
680;DHT22;322;48.846;9.230;2023-05-10T07:16:23;16.10;99.00
680;DHT22;322;48.846;9.230;2023-05-10T07:18:52;16.10;99.90
680;DHT22;322;48.846;9.230;2023-05-10T07:21:20;16.10;97.80
680;DHT22;322;48.846;9.230;2023-05-10T07:23:50;16.00;98.10
680;DHT22;322;48.846;9.230;2023-05-10T07:26:18;16.10;97.90
680;DHT22;322;48.846;9.230;2023-05-10T07:28:47;16.20;98.30
680;DHT22;322;48.846;9.230;2023-05-10T07:31:15;16.20;99.70
680;DHT22;322;48.846;9.230;2023-05-10T07:33:43;16.40;97.10
680;DHT22;322;48.846;9.230;2023-05-10T07:36:12;16.50;98.00
680;DHT22;322;48.846;9.230;2023-05-10T07:38:40;16.20;94.20
680;DHT22;322;48.846;9.230;2023-05-10T07:41:09;16.20;96.80
680;DHT22;322;48.846;9.230;2023-05-10T07:43:37;16.10;93.40
680;DHT22;322;48.846;9.230;2023-05-10T07:46:05;16.00;96.40
680;DHT22;322;48.846;9.230;2023-05-10T07:48:33;16.20;96.70
680;DHT22;322;48.846;9.230;2023-05-10T07:51:03;16.20;93.80
680;DHT22;322;48.846;9.230;2023-05-10T07:53:34;16.10;94.30
680;DHT22;322;48.846;9.230;2023-05-10T07:56:20;16.20;94.20
680;DHT22;322;48.846;9.230;2023-05-10T07:58:48;16.20;94.90
680;DHT22;322;48.846;9.230;2023-05-10T08:01:16;16.40;92.80
680;DHT22;322;48.846;9.230;2023-05-10T08:03:44;16.60;93.60
680;DHT22;322;48.846;9.230;2023-05-10T08:06:12;16.70;93.20
680;DHT22;322;48.846;9.230;2023-05-10T08:08:42;17.00;94.10
680;DHT22;322;48.846;9.230;2023-05-10T08:11:10;16.90;91.10
680;DHT22;322;48.846;9.230;2023-05-10T08:13:38;16.70;89.30
680;DHT22;322;48.846;9.230;2023-05-10T08:16:06;16.40;90.60
680;DHT22;322;48.846;9.230;2023-05-10T08:18:34;16.20;90.70
680;DHT22;322;48.846;9.230;2023-05-10T08:21:02;16.10;90.70
680;DHT22;322;48.846;9.230;2023-05-10T08:23:30;16.10;91.30
680;DHT22;322;48.846;9.230;2023-05-10T08:25:59;16.10;91.40
680;DHT22;322;48.846;9.230;2023-05-10T08:28:27;16.10;92.20
680;DHT22;322;48.846;9.230;2023-05-10T08:30:55;15.90;90.70
680;DHT22;322;48.846;9.230;2023-05-10T08:33:23;15.80;91.80
680;DHT22;322;48.846;9.230;2023-05-10T08:35:51;15.80;92.60
680;DHT22;322;48.846;9.230;2023-05-10T08:38:19;15.90;90.40
680;DHT22;322;48.846;9.230;2023-05-10T08:40:49;16.00;90.50
680;DHT22;322;48.846;9.230;2023-05-10T08:43:18;16.00;86.90
680;DHT22;322;48.846;9.230;2023-05-10T08:45:47;16.00;88.40
680;DHT22;322;48.846;9.230;2023-05-10T08:48:17;15.90;89.30
680;DHT22;322;48.846;9.230;2023-05-10T08:50:46;15.90;88.70
680;DHT22;322;48.846;9.230;2023-05-10T08:53:16;15.70;87.20
680;DHT22;322;48.846;9.230;2023-05-10T08:55:44;15.70;89.80
680;DHT22;322;48.846;9.230;2023-05-10T08:58:12;15.90;90.10
680;DHT22;322;48.846;9.230;2023-05-10T09:00:42;16.10;86.80
680;DHT22;322;48.846;9.230;2023-05-10T09:03:11;16.20;87.50
680;DHT22;322;48.846;9.230;2023-05-10T09:05:39;16.50;85.80
680;DHT22;322;48.846;9.230;2023-05-10T09:08:08;16.80;85.80
680;DHT22;322;48.846;9.230;2023-05-10T09:10:38;17.00;83.10
680;DHT22;322;48.846;9.230;2023-05-10T09:13:07;17.10;83.60
680;DHT22;322;48.846;9.230;2023-05-10T09:15:36;17.20;80.70
680;DHT22;322;48.846;9.230;2023-05-10T09:18:06;16.90;79.70
680;DHT22;322;48.846;9.230;2023-05-10T09:20:34;17.00;81.60
680;DHT22;322;48.846;9.230;2023-05-10T09:23:01;17.10;77.50
680;DHT22;322;48.846;9.230;2023-05-10T09:25:29;17.10;80.90
680;DHT22;322;48.846;9.230;2023-05-10T09:28:00;17.30;79.70
680;DHT22;322;48.846;9.230;2023-05-10T09:30:29;17.20;77.90
680;DHT22;322;48.846;9.230;2023-05-10T09:32:58;17.10;77.30
680;DHT22;322;48.846;9.230;2023-05-10T09:35:30;17.10;80.10
680;DHT22;322;48.846;9.230;2023-05-10T09:38:00;17.20;81.50
680;DHT22;322;48.846;9.230;2023-05-10T09:40:29;17.20;81.30
680;DHT22;322;48.846;9.230;2023-05-10T09:42:58;17.60;80.70
680;DHT22;322;48.846;9.230;2023-05-10T09:45:28;17.80;76.70
680;DHT22;322;48.846;9.230;2023-05-10T09:47:56;18.20;75.70
680;DHT22;322;48.846;9.230;2023-05-10T09:50:26;18.40;76.20
680;DHT22;322;48.846;9.230;2023-05-10T09:52:57;18.40;73.50
680;DHT22;322;48.846;9.230;2023-05-10T09:55:37;18.20;71.70
680;DHT22;322;48.846;9.230;2023-05-10T09:58:06;18.10;74.20
680;DHT22;322;48.846;9.230;2023-05-10T10:00:39;17.60;75.00
680;DHT22;322;48.846;9.230;2023-05-10T10:03:12;17.50;75.90
680;DHT22;322;48.846;9.230;2023-05-10T10:05:41;17.20;78.80
680;DHT22;322;48.846;9.230;2023-05-10T10:08:12;16.90;80.10
680;DHT22;322;48.846;9.230;2023-05-10T10:10:40;16.60;81.30
680;DHT22;322;48.846;9.230;2023-05-10T10:13:11;16.30;82.90
680;DHT22;322;48.846;9.230;2023-05-10T10:15:39;16.20;82.50
680;DHT22;322;48.846;9.230;2023-05-10T10:18:07;16.10;83.80
680;DHT22;322;48.846;9.230;2023-05-10T10:20:40;16.30;84.80
680;DHT22;322;48.846;9.230;2023-05-10T10:23:08;16.60;80.80
680;DHT22;322;48.846;9.230;2023-05-10T10:25:38;16.90;82.40
680;DHT22;322;48.846;9.230;2023-05-10T10:28:16;17.20;77.80
680;DHT22;322;48.846;9.230;2023-05-10T10:30:50;17.00;77.00
680;DHT22;322;48.846;9.230;2023-05-10T10:33:39;16.80;76.70
680;DHT22;322;48.846;9.230;2023-05-10T10:36:07;16.70;79.90
680;DHT22;322;48.846;9.230;2023-05-10T10:38:37;16.80;81.60
680;DHT22;322;48.846;9.230;2023-05-10T10:41:26;17.00;81.20
680;DHT22;322;48.846;9.230;2023-05-10T10:44:25;17.20;77.80
680;DHT22;322;48.846;9.230;2023-05-10T10:47:10;17.50;78.60
680;DHT22;322;48.846;9.230;2023-05-10T10:49:53;17.80;77.20
680;DHT22;322;48.846;9.230;2023-05-10T10:52:34;17.70;73.40
680;DHT22;322;48.846;9.230;2023-05-10T10:55:05;17.10;74.80
680;DHT22;322;48.846;9.230;2023-05-10T10:57:46;17.20;75.30
680;DHT22;322;48.846;9.230;2023-05-10T11:00:26;17.30;75.40
680;DHT22;322;48.846;9.230;2023-05-10T11:02:57;17.60;74.70
680;DHT22;322;48.846;9.230;2023-05-10T11:08:20;17.80;70.70
680;DHT22;322;48.846;9.230;2023-05-10T11:11:04;17.70;71.30
680;DHT22;322;48.846;9.230;2023-05-10T11:13:38;17.60;69.50
680;DHT22;322;48.846;9.230;2023-05-10T11:16:16;17.40;68.70
680;DHT22;322;48.846;9.230;2023-05-10T11:18:58;17.10;69.80
680;DHT22;322;48.846;9.230;2023-05-10T11:21:26;17.40;70.80
680;DHT22;322;48.846;9.230;2023-05-10T11:23:55;17.40;70.90
680;DHT22;322;48.846;9.230;2023-05-10T11:26:24;17.40;69.80
680;DHT22;322;48.846;9.230;2023-05-10T11:28:54;17.50;69.80
680;DHT22;322;48.846;9.230;2023-05-10T11:31:27;17.50;70.10
680;DHT22;322;48.846;9.230;2023-05-10T11:33:57;17.50;69.10
680;DHT22;322;48.846;9.230;2023-05-10T11:36:27;17.60;68.30
680;DHT22;322;48.846;9.230;2023-05-10T11:38:56;17.70;71.30
680;DHT22;322;48.846;9.230;2023-05-10T11:41:25;17.90;70.00
680;DHT22;322;48.846;9.230;2023-05-10T11:43:57;17.70;65.90
680;DHT22;322;48.846;9.230;2023-05-10T11:46:26;17.30;64.60
680;DHT22;322;48.846;9.230;2023-05-10T11:48:58;17.20;66.80
680;DHT22;322;48.846;9.230;2023-05-10T11:51:27;17.10;67.50
680;DHT22;322;48.846;9.230;2023-05-10T11:53:56;17.30;69.10
680;DHT22;322;48.846;9.230;2023-05-10T11:56:24;17.50;68.00
680;DHT22;322;48.846;9.230;2023-05-10T11:58:56;17.50;67.90
680;DHT22;322;48.846;9.230;2023-05-10T12:01:26;17.40;66.50
680;DHT22;322;48.846;9.230;2023-05-10T12:03:56;17.30;65.60
680;DHT22;322;48.846;9.230;2023-05-10T12:06:27;17.20;67.80
680;DHT22;322;48.846;9.230;2023-05-10T12:08:55;17.30;66.90
680;DHT22;322;48.846;9.230;2023-05-10T12:11:25;17.30;68.10
680;DHT22;322;48.846;9.230;2023-05-10T12:13:54;17.20;67.70
680;DHT22;322;48.846;9.230;2023-05-10T12:16:25;16.90;68.10
680;DHT22;322;48.846;9.230;2023-05-10T12:18:57;16.90;68.90
680;DHT22;322;48.846;9.230;2023-05-10T12:21:26;16.80;67.60
680;DHT22;322;48.846;9.230;2023-05-10T12:23:59;16.70;68.40
680;DHT22;322;48.846;9.230;2023-05-10T12:26:28;16.60;70.00
680;DHT22;322;48.846;9.230;2023-05-10T12:29:12;16.70;71.40
680;DHT22;322;48.846;9.230;2023-05-10T12:31:52;16.60;72.70
680;DHT22;322;48.846;9.230;2023-05-10T12:34:24;16.60;66.70
680;DHT22;322;48.846;9.230;2023-05-10T12:36:53;16.60;66.40
680;DHT22;322;48.846;9.230;2023-05-10T12:39:21;16.60;68.30
680;DHT22;322;48.846;9.230;2023-05-10T12:41:49;16.70;66.10
680;DHT22;322;48.846;9.230;2023-05-10T12:44:17;16.70;64.60
680;DHT22;322;48.846;9.230;2023-05-10T12:46:46;17.00;64.60
680;DHT22;322;48.846;9.230;2023-05-10T12:49:15;17.20;63.40
680;DHT22;322;48.846;9.230;2023-05-10T12:51:45;17.50;62.00
680;DHT22;322;48.846;9.230;2023-05-10T12:54:13;17.40;60.00
680;DHT22;322;48.846;9.230;2023-05-10T12:56:41;17.50;64.10
680;DHT22;322;48.846;9.230;2023-05-10T12:59:09;17.50;63.20
680;DHT22;322;48.846;9.230;2023-05-10T13:01:37;17.40;60.80
680;DHT22;322;48.846;9.230;2023-05-10T13:04:05;17.30;64.30
680;DHT22;322;48.846;9.230;2023-05-10T13:06:34;17.40;65.10
680;DHT22;322;48.846;9.230;2023-05-10T13:09:03;17.40;63.70
680;DHT22;322;48.846;9.230;2023-05-10T13:11:31;17.30;62.30
680;DHT22;322;48.846;9.230;2023-05-10T13:13:59;17.20;64.20
680;DHT22;322;48.846;9.230;2023-05-10T13:16:27;17.30;65.10
680;DHT22;322;48.846;9.230;2023-05-10T13:18:55;17.50;62.80
680;DHT22;322;48.846;9.230;2023-05-10T13:21:23;17.60;62.70
680;DHT22;322;48.846;9.230;2023-05-10T13:23:53;17.70;63.90
680;DHT22;322;48.846;9.230;2023-05-10T13:26:22;17.80;64.70
680;DHT22;322;48.846;9.230;2023-05-10T13:28:50;17.70;63.70
680;DHT22;322;48.846;9.230;2023-05-10T13:31:18;17.50;64.10
680;DHT22;322;48.846;9.230;2023-05-10T13:33:47;17.30;63.40
680;DHT22;322;48.846;9.230;2023-05-10T13:36:15;17.10;63.80
680;DHT22;322;48.846;9.230;2023-05-10T13:38:43;16.90;65.80
680;DHT22;322;48.846;9.230;2023-05-10T13:41:12;16.80;67.10
680;DHT22;322;48.846;9.230;2023-05-10T13:43:40;16.80;69.50
680;DHT22;322;48.846;9.230;2023-05-10T13:46:08;16.80;66.50
680;DHT22;322;48.846;9.230;2023-05-10T13:48:39;16.80;66.60
680;DHT22;322;48.846;9.230;2023-05-10T13:51:07;17.00;66.90
680;DHT22;322;48.846;9.230;2023-05-10T13:53:35;17.50;66.50
680;DHT22;322;48.846;9.230;2023-05-10T13:56:03;17.90;67.10
680;DHT22;322;48.846;9.230;2023-05-10T13:58:32;18.10;63.90
680;DHT22;322;48.846;9.230;2023-05-10T14:01:00;18.30;62.40
680;DHT22;322;48.846;9.230;2023-05-10T14:03:28;18.20;62.60
680;DHT22;322;48.846;9.230;2023-05-10T14:05:56;18.10;59.70
680;DHT22;322;48.846;9.230;2023-05-10T14:08:24;18.00;58.30
680;DHT22;322;48.846;9.230;2023-05-10T14:10:53;17.80;60.20
680;DHT22;322;48.846;9.230;2023-05-10T14:13:23;17.80;59.50
680;DHT22;322;48.846;9.230;2023-05-10T14:15:54;17.60;57.50
680;DHT22;322;48.846;9.230;2023-05-10T14:18:22;17.30;59.30
680;DHT22;322;48.846;9.230;2023-05-10T14:20:50;17.20;59.60
680;DHT22;322;48.846;9.230;2023-05-10T14:23:18;17.10;61.00
680;DHT22;322;48.846;9.230;2023-05-10T14:25:50;17.10;61.90
680;DHT22;322;48.846;9.230;2023-05-10T14:28:18;17.10;61.30
680;DHT22;322;48.846;9.230;2023-05-10T14:30:47;17.20;60.60
680;DHT22;322;48.846;9.230;2023-05-10T14:33:16;17.40;58.80
680;DHT22;322;48.846;9.230;2023-05-10T14:35:44;17.70;60.80
680;DHT22;322;48.846;9.230;2023-05-10T14:38:13;18.00;61.40
680;DHT22;322;48.846;9.230;2023-05-10T14:40:41;18.30;60.80
680;DHT22;322;48.846;9.230;2023-05-10T14:43:09;18.40;61.10
680;DHT22;322;48.846;9.230;2023-05-10T14:45:37;18.40;60.00
680;DHT22;322;48.846;9.230;2023-05-10T14:48:05;18.40;57.30
680;DHT22;322;48.846;9.230;2023-05-10T14:50:39;18.30;57.40
680;DHT22;322;48.846;9.230;2023-05-10T14:53:07;18.20;59.10
680;DHT22;322;48.846;9.230;2023-05-10T14:55:35;18.10;60.50
680;DHT22;322;48.846;9.230;2023-05-10T14:58:03;18.20;59.70
680;DHT22;322;48.846;9.230;2023-05-10T15:00:31;18.20;61.00
680;DHT22;322;48.846;9.230;2023-05-10T15:02:59;18.10;58.70
680;DHT22;322;48.846;9.230;2023-05-10T15:05:28;18.10;58.50
680;DHT22;322;48.846;9.230;2023-05-10T15:07:58;18.00;59.70
680;DHT22;322;48.846;9.230;2023-05-10T15:10:26;18.10;60.00
680;DHT22;322;48.846;9.230;2023-05-10T15:12:54;18.00;58.50
680;DHT22;322;48.846;9.230;2023-05-10T15:15:22;17.90;58.50
680;DHT22;322;48.846;9.230;2023-05-10T15:17:50;17.80;58.20
680;DHT22;322;48.846;9.230;2023-05-10T15:20:17;17.70;59.40
680;DHT22;322;48.846;9.230;2023-05-10T15:22:45;17.60;60.40
680;DHT22;322;48.846;9.230;2023-05-10T15:25:15;17.80;60.90
680;DHT22;322;48.846;9.230;2023-05-10T15:27:43;17.80;59.90
680;DHT22;322;48.846;9.230;2023-05-10T15:30:11;18.00;59.50
680;DHT22;322;48.846;9.230;2023-05-10T15:32:39;18.30;59.80
680;DHT22;322;48.846;9.230;2023-05-10T15:35:08;18.20;59.10
680;DHT22;322;48.846;9.230;2023-05-10T15:37:36;18.10;60.10
680;DHT22;322;48.846;9.230;2023-05-10T15:40:05;18.20;59.60
680;DHT22;322;48.846;9.230;2023-05-10T15:42:35;18.10;60.20
680;DHT22;322;48.846;9.230;2023-05-10T15:45:04;18.20;60.50
680;DHT22;322;48.846;9.230;2023-05-10T15:47:32;18.10;61.40
680;DHT22;322;48.846;9.230;2023-05-10T15:50:00;18.20;62.90
680;DHT22;322;48.846;9.230;2023-05-10T15:52:28;18.20;62.00
680;DHT22;322;48.846;9.230;2023-05-10T15:54:56;18.40;59.80
680;DHT22;322;48.846;9.230;2023-05-10T15:57:24;18.20;59.60
680;DHT22;322;48.846;9.230;2023-05-10T15:59:53;18.20;60.90
680;DHT22;322;48.846;9.230;2023-05-10T16:02:21;18.10;60.00
680;DHT22;322;48.846;9.230;2023-05-10T16:04:49;18.10;59.90
680;DHT22;322;48.846;9.230;2023-05-10T16:07:18;18.10;60.20
680;DHT22;322;48.846;9.230;2023-05-10T16:09:46;17.90;59.20
680;DHT22;322;48.846;9.230;2023-05-10T16:12:15;17.90;59.70
680;DHT22;322;48.846;9.230;2023-05-10T16:14:43;17.90;61.30
680;DHT22;322;48.846;9.230;2023-05-10T16:17:12;17.90;59.70
680;DHT22;322;48.846;9.230;2023-05-10T16:19:40;17.80;60.10
680;DHT22;322;48.846;9.230;2023-05-10T16:22:08;17.70;59.90
680;DHT22;322;48.846;9.230;2023-05-10T16:24:36;17.60;60.20
680;DHT22;322;48.846;9.230;2023-05-10T16:27:04;17.60;62.20
680;DHT22;322;48.846;9.230;2023-05-10T16:29:32;17.60;59.80
680;DHT22;322;48.846;9.230;2023-05-10T16:32:00;17.50;61.60
680;DHT22;322;48.846;9.230;2023-05-10T16:34:29;17.50;60.50
680;DHT22;322;48.846;9.230;2023-05-10T16:36:57;17.40;60.30
680;DHT22;322;48.846;9.230;2023-05-10T16:39:25;17.30;61.90
680;DHT22;322;48.846;9.230;2023-05-10T16:41:53;17.30;61.70
680;DHT22;322;48.846;9.230;2023-05-10T16:44:21;17.20;61.30
680;DHT22;322;48.846;9.230;2023-05-10T16:46:51;17.10;62.00
680;DHT22;322;48.846;9.230;2023-05-10T16:49:20;17.00;62.60
680;DHT22;322;48.846;9.230;2023-05-10T16:51:53;17.00;64.40
680;DHT22;322;48.846;9.230;2023-05-10T16:54:21;16.90;63.50
680;DHT22;322;48.846;9.230;2023-05-10T16:56:49;16.90;64.50
680;DHT22;322;48.846;9.230;2023-05-10T16:59:17;17.00;64.60
680;DHT22;322;48.846;9.230;2023-05-10T17:01:45;16.90;62.50
680;DHT22;322;48.846;9.230;2023-05-10T17:04:13;16.80;63.80